sensor_id;sensor_type;location;lat;lon;timestamp;pressure;altitude;pressure_sealevel;temperature;humidity
76321;BME280;65132;52.088;5.402;2023-09-30T00:00:48;78532.38;;;-140.59;100.00
76321;BME280;65132;52.088;5.402;2023-09-30T00:03:17;78544.84;;;-140.59;100.00
76321;BME280;65132;52.088;5.402;2023-09-30T00:05:44;78546.94;;;-140.59;100.00
76321;BME280;65132;52.088;5.402;2023-09-30T00:08:13;78549.00;;;-140.59;100.00
76321;BME280;65132;52.088;5.402;2023-09-30T00:10:42;78553.16;;;-140.59;100.00
76321;BME280;65132;52.088;5.402;2023-09-30T00:13:08;78544.84;;;-140.59;100.00
76321;BME280;65132;52.088;5.402;2023-09-30T00:15:37;78538.63;;;-140.59;100.00
76321;BME280;65132;52.088;5.402;2023-09-30T00:18:04;78540.69;;;-140.59;100.00
76321;BME280;65132;52.088;5.402;2023-09-30T00:20:31;78544.84;;;-140.59;100.00
76321;BME280;65132;52.088;5.402;2023-09-30T00:22:59;78553.16;;;-140.59;100.00
76321;BME280;65132;52.088;5.402;2023-09-30T00:25:26;78549.00;;;-140.59;100.00
76321;BME280;65132;52.088;5.402;2023-09-30T00:27:52;78540.69;;;-140.59;100.00
76321;BME280;65132;52.088;5.402;2023-09-30T00:30:19;78542.78;;;-140.59;100.00
76321;BME280;65132;52.088;5.402;2023-09-30T00:32:51;78544.84;;;-140.59;100.00
76321;BME280;65132;52.088;5.402;2023-09-30T00:35:17;78538.63;;;-140.59;100.00
76321;BME280;65132;52.088;5.402;2023-09-30T00:37:44;78544.84;;;-140.59;100.00
76321;BME280;65132;52.088;5.402;2023-09-30T00:40:10;78551.09;;;-140.59;100.00
76321;BME280;65132;52.088;5.402;2023-09-30T00:42:46;78555.25;;;-140.59;100.00
76321;BME280;65132;52.088;5.402;2023-09-30T00:45:17;78546.94;;;-140.59;100.00
76321;BME280;65132;52.088;5.402;2023-09-30T00:47:48;78551.09;;;-140.59;100.00
76321;BME280;65132;52.088;5.402;2023-09-30T00:50:19;78546.94;;;-140.59;100.00
76321;BME280;65132;52.088;5.402;2023-09-30T00:52:46;78544.84;;;-140.59;100.00
76321;BME280;65132;52.088;5.402;2023-09-30T00:55:15;78540.69;;;-140.59;100.00
76321;BME280;65132;52.088;5.402;2023-09-30T00:57:44;78538.63;;;-140.59;100.00
76321;BME280;65132;52.088;5.402;2023-09-30T01:00:11;78526.16;;;-140.59;100.00
76321;BME280;65132;52.088;5.402;2023-09-30T01:02:41;78522.00;;;-140.59;100.00
76321;BME280;65132;52.088;5.402;2023-09-30T01:05:08;78522.00;;;-140.59;100.00
76321;BME280;65132;52.088;5.402;2023-09-30T01:07:40;78534.47;;;-140.59;100.00
76321;BME280;65132;52.088;5.402;2023-09-30T01:10:15;78540.69;;;-140.59;100.00
76321;BME280;65132;52.088;5.402;2023-09-30T01:12:43;78553.16;;;-140.59;100.00
76321;BME280;65132;52.088;5.402;2023-09-30T01:15:10;78549.00;;;-140.59;100.00
76321;BME280;65132;52.088;5.402;2023-09-30T01:17:37;78557.31;;;-140.59;100.00
76321;BME280;65132;52.088;5.402;2023-09-30T01:20:09;78561.47;;;-140.59;100.00
76321;BME280;65132;52.088;5.402;2023-09-30T01:22:36;78573.94;;;-140.59;100.00
76321;BME280;65132;52.088;5.402;2023-09-30T01:25:13;78584.34;;;-140.59;100.00
76321;BME280;65132;52.088;5.402;2023-09-30T01:27:41;78582.25;;;-140.59;100.00
76321;BME280;65132;52.088;5.402;2023-09-30T01:30:13;78586.41;;;-140.59;100.00
76321;BME280;65132;52.088;5.402;2023-09-30T01:32:42;78582.25;;;-140.59;100.00
76321;BME280;65132;52.088;5.402;2023-09-30T01:35:11;78578.09;;;-140.59;100.00
76321;BME280;65132;52.088;5.402;2023-09-30T01:37:38;78573.94;;;-140.59;100.00
76321;BME280;65132;52.088;5.402;2023-09-30T01:40:09;78567.72;;;-140.59;100.00
76321;BME280;65132;52.088;5.402;2023-09-30T01:42:43;78559.41;;;-140.59;100.00
76321;BME280;65132;52.088;5.402;2023-09-30T01:45:16;78567.72;;;-140.59;100.00
76321;BME280;65132;52.088;5.402;2023-09-30T01:47:44;78561.47;;;-140.59;100.00
76321;BME280;65132;52.088;5.402;2023-09-30T01:50:13;78567.72;;;-140.59;100.00
76321;BME280;65132;52.088;5.402;2023-09-30T01:52:46;78571.88;;;-140.59;100.00
76321;BME280;65132;52.088;5.402;2023-09-30T01:55:14;78569.78;;;-140.59;100.00
76321;BME280;65132;52.088;5.402;2023-09-30T01:57:44;78565.63;;;-140.59;100.00
76321;BME280;65132;52.088;5.402;2023-09-30T02:00:11;78561.47;;;-140.59;100.00
76321;BME280;65132;52.088;5.402;2023-09-30T02:02:37;78563.56;;;-140.59;100.00
76321;BME280;65132;52.088;5.402;2023-09-30T02:05:04;78565.63;;;-140.59;100.00
76321;BME280;65132;52.088;5.402;2023-09-30T02:07:32;78582.25;;;-140.59;100.00
76321;BME280;65132;52.088;5.402;2023-09-30T02:09:59;78588.50;;;-140.59;100.00
76321;BME280;65132;52.088;5.402;2023-09-30T02:12:27;78605.13;;;-140.59;100.00
76321;BME280;65132;52.088;5.402;2023-09-30T02:14:54;78619.66;;;-140.59;100.00
76321;BME280;65132;52.088;5.402;2023-09-30T02:17:21;78623.81;;;-140.59;100.00
76321;BME280;65132;52.088;5.402;2023-09-30T02:19:48;78613.44;;;-140.59;100.00
76321;BME280;65132;52.088;5.402;2023-09-30T02:22:14;78615.50;;;-140.59;100.00
76321;BME280;65132;52.088;5.402;2023-09-30T02:24:42;78605.13;;;-140.59;100.00
76321;BME280;65132;52.088;5.402;2023-09-30T02:27:12;78611.34;;;-140.59;100.00
76321;BME280;65132;52.088;5.402;2023-09-30T02:29:38;78607.19;;;-140.59;100.00
76321;BME280;65132;52.088;5.402;2023-09-30T02:32:07;78598.88;;;-140.59;100.00
76321;BME280;65132;52.088;5.402;2023-09-30T02:34:34;78592.66;;;-140.59;100.00
76321;BME280;65132;52.088;5.402;2023-09-30T02:37:04;78582.25;;;-140.59;100.00
76321;BME280;65132;52.088;5.402;2023-09-30T02:39:30;78573.94;;;-140.59;100.00
76321;BME280;65132;52.088;5.402;2023-09-30T02:42:04;78563.56;;;-140.59;100.00
76321;BME280;65132;52.088;5.402;2023-09-30T02:44:36;78551.09;;;-140.59;100.00
76321;BME280;65132;52.088;5.402;2023-09-30T02:47:15;78542.78;;;-140.59;100.00
76321;BME280;65132;52.088;5.402;2023-09-30T02:49:49;78549.00;;;-140.59;100.00
76321;BME280;65132;52.088;5.402;2023-09-30T02:52:19;78546.94;;;-140.59;100.00
76321;BME280;65132;52.088;5.402;2023-09-30T02:54:48;78538.63;;;-140.59;100.00
76321;BME280;65132;52.088;5.402;2023-09-30T02:57:15;78549.00;;;-140.59;100.00
76321;BME280;65132;52.088;5.402;2023-09-30T02:59:41;78544.84;;;-140.59;100.00
76321;BME280;65132;52.088;5.402;2023-09-30T03:02:08;78546.94;;;-140.59;100.00
76321;BME280;65132;52.088;5.402;2023-09-30T03:04:34;78540.69;;;-140.59;100.00
76321;BME280;65132;52.088;5.402;2023-09-30T03:07:06;78536.53;;;-140.59;100.00
76321;BME280;65132;52.088;5.402;2023-09-30T03:09:34;78536.53;;;-140.59;100.00
76321;BME280;65132;52.088;5.402;2023-09-30T03:12:14;78544.84;;;-140.59;100.00
76321;BME280;65132;52.088;5.402;2023-09-30T03:14:43;78540.69;;;-140.59;100.00
76321;BME280;65132;52.088;5.402;2023-09-30T03:17:12;78538.63;;;-140.59;100.00
76321;BME280;65132;52.088;5.402;2023-09-30T03:19:39;78540.69;;;-140.59;100.00
76321;BME280;65132;52.088;5.402;2023-09-30T03:22:06;78538.63;;;-140.59;100.00
76321;BME280;65132;52.088;5.402;2023-09-30T03:24:33;78536.53;;;-140.59;100.00
76321;BME280;65132;52.088;5.402;2023-09-30T03:26:59;78536.53;;;-140.59;100.00
76321;BME280;65132;52.088;5.402;2023-09-30T03:29:26;78532.38;;;-140.59;100.00
76321;BME280;65132;52.088;5.402;2023-09-30T03:31:52;78528.22;;;-140.59;100.00
76321;BME280;65132;52.088;5.402;2023-09-30T03:34:26;78530.31;;;-140.59;100.00
76321;BME280;65132;52.088;5.402;2023-09-30T03:36:52;78536.53;;;-140.59;100.00
76321;BME280;65132;52.088;5.402;2023-09-30T03:39:21;78534.47;;;-140.59;100.00
76321;BME280;65132;52.088;5.402;2023-09-30T03:41:47;78532.38;;;-140.59;100.00
76321;BME280;65132;52.088;5.402;2023-09-30T03:44:18;78532.38;;;-140.59;100.00
76321;BME280;65132;52.088;5.402;2023-09-30T03:46:44;78530.31;;;-140.59;100.00
76321;BME280;65132;52.088;5.402;2023-09-30T03:49:14;78526.16;;;-140.59;100.00
76321;BME280;65132;52.088;5.402;2023-09-30T03:51:46;78528.22;;;-140.59;100.00
76321;BME280;65132;52.088;5.402;2023-09-30T03:54:18;78536.53;;;-140.59;100.00
76321;BME280;65132;52.088;5.402;2023-09-30T03:56:45;78532.38;;;-140.59;100.00
76321;BME280;65132;52.088;5.402;2023-09-30T03:59:12;78532.38;;;-140.59;100.00
76321;BME280;65132;52.088;5.402;2023-09-30T04:01:41;78526.16;;;-140.59;100.00
76321;BME280;65132;52.088;5.402;2023-09-30T04:04:11;78526.16;;;-140.59;100.00
76321;BME280;65132;52.088;5.402;2023-09-30T04:06:38;78526.16;;;-140.59;100.00
76321;BME280;65132;52.088;5.402;2023-09-30T04:09:09;78534.47;;;-140.59;100.00
76321;BME280;65132;52.088;5.402;2023-09-30T04:11:41;78532.38;;;-140.59;100.00
76321;BME280;65132;52.088;5.402;2023-09-30T04:14:12;78538.63;;;-140.59;100.00
76321;BME280;65132;52.088;5.402;2023-09-30T04:16:45;78538.63;;;-140.59;100.00
76321;BME280;65132;52.088;5.402;2023-09-30T04:19:12;78540.69;;;-140.59;100.00
76321;BME280;65132;52.088;5.402;2023-09-30T04:21:43;78536.53;;;-140.59;100.00
76321;BME280;65132;52.088;5.402;2023-09-30T04:24:11;78534.47;;;-140.59;100.00
76321;BME280;65132;52.088;5.402;2023-09-30T04:26:44;78546.94;;;-140.59;100.00
76321;BME280;65132;52.088;5.402;2023-09-30T04:29:14;78544.84;;;-140.59;100.00
76321;BME280;65132;52.088;5.402;2023-09-30T04:31:41;78546.94;;;-140.59;100.00
76321;BME280;65132;52.088;5.402;2023-09-30T04:34:09;78549.00;;;-140.59;100.00
76321;BME280;65132;52.088;5.402;2023-09-30T04:36:42;78553.16;;;-140.59;100.00
76321;BME280;65132;52.088;5.402;2023-09-30T04:39:13;78553.16;;;-140.59;100.00
76321;BME280;65132;52.088;5.402;2023-09-30T04:41:39;78555.25;;;-140.59;100.00
76321;BME280;65132;52.088;5.402;2023-09-30T04:44:11;78559.41;;;-140.59;100.00
76321;BME280;65132;52.088;5.402;2023-09-30T04:46:41;78563.56;;;-140.59;100.00
76321;BME280;65132;52.088;5.402;2023-09-30T04:49:07;78565.63;;;-140.59;100.00
76321;BME280;65132;52.088;5.402;2023-09-30T04:51:35;78563.56;;;-140.59;100.00
76321;BME280;65132;52.088;5.402;2023-09-30T04:54:06;78565.63;;;-140.59;100.00
76321;BME280;65132;52.088;5.402;2023-09-30T04:56:32;78567.72;;;-140.59;100.00
76321;BME280;65132;52.088;5.402;2023-09-30T04:59:02;78565.63;;;-140.59;100.00
76321;BME280;65132;52.088;5.402;2023-09-30T05:01:28;78578.09;;;-140.59;100.00
76321;BME280;65132;52.088;5.402;2023-09-30T05:03:57;78584.34;;;-140.59;100.00
76321;BME280;65132;52.088;5.402;2023-09-30T05:06:26;78586.41;;;-140.59;100.00
76321;BME280;65132;52.088;5.402;2023-09-30T05:08:55;78594.72;;;-140.59;100.00
76321;BME280;65132;52.088;5.402;2023-09-30T05:11:26;78598.88;;;-140.59;100.00
76321;BME280;65132;52.088;5.402;2023-09-30T05:13:58;78605.13;;;-140.59;100.00
76321;BME280;65132;52.088;5.402;2023-09-30T05:16:29;78603.03;;;-140.59;100.00
76321;BME280;65132;52.088;5.402;2023-09-30T05:18:57;78594.72;;;-140.59;100.00
76321;BME280;65132;52.088;5.402;2023-09-30T05:21:24;78598.88;;;-140.59;100.00
76321;BME280;65132;52.088;5.402;2023-09-30T05:24:01;78600.97;;;-140.59;100.00
76321;BME280;65132;52.088;5.402;2023-09-30T05:26:29;78600.97;;;-140.59;100.00
76321;BME280;65132;52.088;5.402;2023-09-30T05:28:58;78594.72;;;-140.59;100.00
76321;BME280;65132;52.088;5.402;2023-09-30T05:31:25;78611.34;;;-140.59;100.00
76321;BME280;65132;52.088;5.402;2023-09-30T05:33:57;78605.13;;;-140.59;100.00
76321;BME280;65132;52.088;5.402;2023-09-30T05:36:28;78615.50;;;-140.59;100.00
76321;BME280;65132;52.088;5.402;2023-09-30T05:38:56;78613.44;;;-140.59;100.00
76321;BME280;65132;52.088;5.402;2023-09-30T05:41:25;78615.50;;;-140.59;100.00
76321;BME280;65132;52.088;5.402;2023-09-30T05:43:52;78615.50;;;-140.59;100.00
76321;BME280;65132;52.088;5.402;2023-09-30T05:46:22;78623.81;;;-140.59;100.00
76321;BME280;65132;52.088;5.402;2023-09-30T05:48:51;78625.91;;;-140.59;100.00
76321;BME280;65132;52.088;5.402;2023-09-30T05:51:18;78627.97;;;-140.59;100.00
76321;BME280;65132;52.088;5.402;2023-09-30T05:53:44;78619.66;;;-140.59;100.00
76321;BME280;65132;52.088;5.402;2023-09-30T05:56:20;78615.50;;;-140.59;100.00
76321;BME280;65132;52.088;5.402;2023-09-30T05:58:49;78617.59;;;-140.59;100.00
76321;BME280;65132;52.088;5.402;2023-09-30T06:01:18;78623.81;;;-140.59;100.00
76321;BME280;65132;52.088;5.402;2023-09-30T06:03:46;78621.75;;;-140.59;100.00
76321;BME280;65132;52.088;5.402;2023-09-30T06:06:16;78627.97;;;-140.59;100.00
76321;BME280;65132;52.088;5.402;2023-09-30T06:08:45;78615.50;;;-140.59;100.00
76321;BME280;65132;52.088;5.402;2023-09-30T06:11:19;78611.34;;;-140.59;100.00
76321;BME280;65132;52.088;5.402;2023-09-30T06:13:46;78613.44;;;-140.59;100.00
76321;BME280;65132;52.088;5.402;2023-09-30T06:16:13;78609.28;;;-140.59;100.00
76321;BME280;65132;52.088;5.402;2023-09-30T06:18:39;78609.28;;;-140.59;100.00
76321;BME280;65132;52.088;5.402;2023-09-30T06:21:07;78603.03;;;-140.59;100.00
76321;BME280;65132;52.088;5.402;2023-09-30T06:23:37;78603.03;;;-140.59;100.00
76321;BME280;65132;52.088;5.402;2023-09-30T06:26:03;78603.03;;;-140.59;100.00
76321;BME280;65132;52.088;5.402;2023-09-30T06:28:33;78592.66;;;-140.59;100.00
76321;BME280;65132;52.088;5.402;2023-09-30T06:31:09;78580.19;;;-140.59;100.00
76321;BME280;65132;52.088;5.402;2023-09-30T06:33:39;78565.63;;;-140.59;100.00
76321;BME280;65132;52.088;5.402;2023-09-30T06:36:29;78553.16;;;-140.59;100.00
76321;BME280;65132;52.088;5.402;2023-09-30T06:38:55;78524.06;;;-140.59;100.00
76321;BME280;65132;52.088;5.402;2023-09-30T06:41:22;78526.16;;;-140.59;100.00
76321;BME280;65132;52.088;5.402;2023-09-30T06:43:53;78530.31;;;-140.59;100.00
76321;BME280;65132;52.088;5.402;2023-09-30T06:46:20;78526.16;;;-140.59;100.00
76321;BME280;65132;52.088;5.402;2023-09-30T06:48:51;78515.75;;;-140.59;100.00
76321;BME280;65132;52.088;5.402;2023-09-30T06:51:24;78515.75;;;-140.59;100.00
76321;BME280;65132;52.088;5.402;2023-09-30T06:53:53;78501.22;;;-140.59;100.00
76321;BME280;65132;52.088;5.402;2023-09-30T06:56:19;78486.66;;;-140.59;100.00
76321;BME280;65132;52.088;5.402;2023-09-30T06:58:47;78482.50;;;-140.59;100.00
76321;BME280;65132;52.088;5.402;2023-09-30T07:01:16;78480.44;;;-140.59;100.00
76321;BME280;65132;52.088;5.402;2023-09-30T07:03:51;78463.81;;;-140.59;100.00
76321;BME280;65132;52.088;5.402;2023-09-30T07:06:26;78467.97;;;-140.59;100.00
76321;BME280;65132;52.088;5.402;2023-09-30T07:08:55;78445.09;;;-140.59;100.00
76321;BME280;65132;52.088;5.402;2023-09-30T07:11:31;78426.38;;;-140.59;100.00
76321;BME280;65132;52.088;5.402;2023-09-30T07:14:07;78420.16;;;-140.59;100.00
76321;BME280;65132;52.088;5.402;2023-09-30T07:16:33;78418.06;;;-140.59;100.00
76321;BME280;65132;52.088;5.402;2023-09-30T07:19:00;78401.44;;;-140.59;100.00
76321;BME280;65132;52.088;5.402;2023-09-30T07:21:29;78401.44;;;-140.59;100.00
76321;BME280;65132;52.088;5.402;2023-09-30T07:23:56;78391.06;;;-140.59;100.00
76321;BME280;65132;52.088;5.402;2023-09-30T07:26:27;78368.19;;;-140.59;100.00
76321;BME280;65132;52.088;5.402;2023-09-30T07:28:53;78332.88;;;-140.59;100.00
76321;BME280;65132;52.088;5.402;2023-09-30T07:31:20;78343.25;;;-140.59;100.00
76321;BME280;65132;52.088;5.402;2023-09-30T07:33:46;78324.56;;;-140.59;100.00
76321;BME280;65132;52.088;5.402;2023-09-30T07:36:28;78314.16;;;-140.59;100.00
76321;BME280;65132;52.088;5.402;2023-09-30T07:38:56;78328.72;;;-140.59;100.00
76321;BME280;65132;52.088;5.402;2023-09-30T07:41:23;78291.31;;;-140.59;100.00
76321;BME280;65132;52.088;5.402;2023-09-30T07:43:50;78285.06;;;-140.59;100.00
76321;BME280;65132;52.088;5.402;2023-09-30T07:46:19;78268.44;;;-140.59;100.00
76321;BME280;65132;52.088;5.402;2023-09-30T07:48:48;78274.69;;;-140.59;100.00
76321;BME280;65132;52.088;5.402;2023-09-30T07:51:14;78245.59;;;-140.59;100.00
76321;BME280;65132;52.088;5.402;2023-09-30T07:53:42;78241.44;;;-140.59;100.00
76321;BME280;65132;52.088;5.402;2023-09-30T07:56:11;78212.34;;;-140.59;100.00
76321;BME280;65132;52.088;5.402;2023-09-30T07:58:42;78220.66;;;-140.59;100.00
76321;BME280;65132;52.088;5.402;2023-09-30T08:01:09;78210.25;;;-140.59;100.00
76321;BME280;65132;52.088;5.402;2023-09-30T08:03:35;78185.31;;;-140.59;99.50
76321;BME280;65132;52.088;5.402;2023-09-30T08:06:07;78154.16;;;-140.59;100.00
76321;BME280;65132;52.088;5.402;2023-09-30T08:08:33;78150.00;;;-140.59;98.80
76321;BME280;65132;52.088;5.402;2023-09-30T08:11:04;78108.44;;;-140.59;97.06
76321;BME280;65132;52.088;5.402;2023-09-30T08:13:34;78108.44;;;-140.59;96.59
76321;BME280;65132;52.088;5.402;2023-09-30T08:16:01;78089.72;;;-140.59;94.48
76321;BME280;65132;52.088;5.402;2023-09-30T08:18:27;78068.94;;;-140.59;94.61
76321;BME280;65132;52.088;5.402;2023-09-30T08:20:55;78066.88;;;-140.59;95.10
76321;BME280;65132;52.088;5.402;2023-09-30T08:23:26;78054.41;;;-140.59;95.25
76321;BME280;65132;52.088;5.402;2023-09-30T08:25:52;78046.09;;;-140.59;95.13
76321;BME280;65132;52.088;5.402;2023-09-30T08:28:19;78021.16;;;-140.59;92.46
76321;BME280;65132;52.088;5.402;2023-09-30T08:30:48;78027.41;;;-140.59;94.75
76321;BME280;65132;52.088;5.402;2023-09-30T08:33:27;77987.91;;;-140.59;91.17
76321;BME280;65132;52.088;5.402;2023-09-30T08:36:01;77960.91;;;-140.59;90.39
76321;BME280;65132;52.088;5.402;2023-09-30T08:38:30;77965.06;;;-140.59;90.26
76321;BME280;65132;52.088;5.402;2023-09-30T08:40:57;77938.03;;;-140.59;89.13
76321;BME280;65132;52.088;5.402;2023-09-30T08:43:25;77965.06;;;-140.59;90.51
76321;BME280;65132;52.088;5.402;2023-09-30T08:45:57;77956.75;;;-140.59;89.25
76321;BME280;65132;52.088;5.402;2023-09-30T08:48:27;77879.84;;;-140.59;87.99
76321;BME280;65132;52.088;5.402;2023-09-30T08:50:56;77863.22;;;-140.59;87.41
76321;BME280;65132;52.088;5.402;2023-09-30T08:53:25;77854.91;;;-140.59;87.25
76321;BME280;65132;52.088;5.402;2023-09-30T08:55:55;77859.06;;;-140.59;86.25
76321;BME280;65132;52.088;5.402;2023-09-30T08:58:35;77877.78;;;-140.59;86.14
76321;BME280;65132;52.088;5.402;2023-09-30T09:01:13;77827.91;;;-140.59;85.60
76321;BME280;65132;52.088;5.402;2023-09-30T09:03:47;77850.75;;;-140.59;84.40
76321;BME280;65132;52.088;5.402;2023-09-30T09:06:13;77861.16;;;-140.59;84.69
76321;BME280;65132;52.088;5.402;2023-09-30T09:08:40;77778.03;;;-140.59;85.06
76321;BME280;65132;52.088;5.402;2023-09-30T09:11:06;77778.03;;;-140.59;81.08
76321;BME280;65132;52.088;5.402;2023-09-30T09:13:49;77715.69;;;-140.59;82.72
76321;BME280;65132;52.088;5.402;2023-09-30T09:16:20;77757.25;;;-140.59;79.08
76321;BME280;65132;52.088;5.402;2023-09-30T09:18:48;77732.31;;;-140.59;78.96
76321;BME280;65132;52.088;5.402;2023-09-30T09:21:18;77736.47;;;-140.59;80.62
76321;BME280;65132;52.088;5.402;2023-09-30T09:23:46;77680.38;;;-140.59;77.87
76321;BME280;65132;52.088;5.402;2023-09-30T09:26:25;77649.22;;;-140.59;77.18
76321;BME280;65132;52.088;5.402;2023-09-30T09:29:03;77578.56;;;-140.59;74.66
76321;BME280;65132;52.088;5.402;2023-09-30T09:31:33;77663.75;;;-140.59;75.37
76321;BME280;65132;52.088;5.402;2023-09-30T09:34:00;77684.53;;;-140.59;77.04
76321;BME280;65132;52.088;5.402;2023-09-30T09:36:45;77748.94;;;-140.59;78.92
76321;BME280;65132;52.088;5.402;2023-09-30T09:39:12;77784.28;;;-140.59;79.84
76321;BME280;65132;52.088;5.402;2023-09-30T09:41:58;77736.47;;;-140.59;78.93
76321;BME280;65132;52.088;5.402;2023-09-30T09:44:25;77759.34;;;-140.59;78.89
76321;BME280;65132;52.088;5.402;2023-09-30T09:46:52;77699.09;;;-140.59;77.28
76321;BME280;65132;52.088;5.402;2023-09-30T09:49:30;77707.38;;;-140.59;76.18
76321;BME280;65132;52.088;5.402;2023-09-30T09:52:03;77694.94;;;-140.59;76.21
76321;BME280;65132;52.088;5.402;2023-09-30T09:54:30;77771.81;;;-140.59;76.80
76321;BME280;65132;52.088;5.402;2023-09-30T09:57:02;77742.72;;;-140.59;76.09
76321;BME280;65132;52.088;5.402;2023-09-30T09:59:33;77611.81;;;-140.59;74.63
76321;BME280;65132;52.088;5.402;2023-09-30T10:02:01;77487.16;;;-140.59;68.37
76321;BME280;65132;52.088;5.402;2023-09-30T10:04:37;77397.81;;;-140.59;64.48
76321;BME280;65132;52.088;5.402;2023-09-30T10:07:05;77464.28;;;-140.59;64.51
76321;BME280;65132;52.088;5.402;2023-09-30T10:09:34;77435.19;;;-140.59;61.38
76321;BME280;65132;52.088;5.402;2023-09-30T10:12:03;77374.94;;;-140.59;61.53
76321;BME280;65132;52.088;5.402;2023-09-30T10:14:32;77337.56;;;-140.59;58.51
76321;BME280;65132;52.088;5.402;2023-09-30T10:16:59;77293.91;;;-140.59;57.34
76321;BME280;65132;52.088;5.402;2023-09-30T10:19:26;77300.16;;;-140.59;57.53
76321;BME280;65132;52.088;5.402;2023-09-30T10:24:44;77406.13;;;-140.59;58.75
76321;BME280;65132;52.088;5.402;2023-09-30T10:30:07;77308.47;;;-140.59;57.91
76321;BME280;65132;52.088;5.402;2023-09-30T10:35:23;77389.50;;;-140.59;57.99
76321;BME280;65132;52.088;5.402;2023-09-30T10:41:00;77281.47;;;-140.59;58.17
76321;BME280;65132;52.088;5.402;2023-09-30T10:43:36;77289.78;;;-140.59;55.74
76321;BME280;65132;52.088;5.402;2023-09-30T10:48:52;77408.19;;;-140.59;59.41
76321;BME280;65132;52.088;5.402;2023-09-30T10:51:21;77557.78;;;-140.59;63.49
76321;BME280;65132;52.088;5.402;2023-09-30T10:53:54;77570.25;;;-140.59;65.18
76321;BME280;65132;52.088;5.402;2023-09-30T10:56:53;77474.69;;;-140.59;64.15
76321;BME280;65132;52.088;5.402;2023-09-30T10:59:21;77416.50;;;-140.59;60.79
76321;BME280;65132;52.088;5.402;2023-09-30T11:01:51;77314.69;;;-140.59;59.50
76321;BME280;65132;52.088;5.402;2023-09-30T11:04:21;77352.09;;;-140.59;58.48
76321;BME280;65132;52.088;5.402;2023-09-30T11:06:49;77204.59;;;-140.59;55.25
76321;BME280;65132;52.088;5.402;2023-09-30T11:09:17;77237.81;;;-140.59;56.00
76321;BME280;65132;52.088;5.402;2023-09-30T11:11:49;77208.75;;;-140.59;55.85
76321;BME280;65132;52.088;5.402;2023-09-30T11:14:31;77347.94;;;-140.59;55.01
76321;BME280;65132;52.088;5.402;2023-09-30T11:17:01;77497.53;;;-140.59;57.97
76321;BME280;65132;52.088;5.402;2023-09-30T11:19:46;77501.69;;;-140.59;58.55
76321;BME280;65132;52.088;5.402;2023-09-30T11:22:13;77559.88;;;-140.59;59.16
76321;BME280;65132;52.088;5.402;2023-09-30T11:24:40;77584.81;;;-140.59;60.87
76321;BME280;65132;52.088;5.402;2023-09-30T11:27:07;77584.81;;;-140.59;60.87
76321;BME280;65132;52.088;5.402;2023-09-30T11:29:34;77522.47;;;-140.59;60.64
76321;BME280;65132;52.088;5.402;2023-09-30T11:32:00;77406.13;;;-140.59;56.17
76321;BME280;65132;52.088;5.402;2023-09-30T11:34:35;77337.56;;;-140.59;56.62
76321;BME280;65132;52.088;5.402;2023-09-30T11:37:02;77273.16;;;-140.59;53.29
76321;BME280;65132;52.088;5.402;2023-09-30T11:39:30;77358.31;;;-140.59;53.53
76321;BME280;65132;52.088;5.402;2023-09-30T11:42:00;77397.81;;;-140.59;53.75
76321;BME280;65132;52.088;5.402;2023-09-30T11:44:29;77389.50;;;-140.59;53.08
76321;BME280;65132;52.088;5.402;2023-09-30T11:46:59;77420.66;;;-140.59;53.84
76321;BME280;65132;52.088;5.402;2023-09-30T11:49:33;77435.19;;;-140.59;53.56
76321;BME280;65132;52.088;5.402;2023-09-30T11:52:11;77300.16;;;-140.59;51.28
76321;BME280;65132;52.088;5.402;2023-09-30T11:54:49;77401.97;;;-140.59;51.94
76321;BME280;65132;52.088;5.402;2023-09-30T11:57:21;77273.16;;;-140.59;50.60
76321;BME280;65132;52.088;5.402;2023-09-30T11:59:52;77246.13;;;-140.59;50.06
76321;BME280;65132;52.088;5.402;2023-09-30T12:02:22;77269.00;;;-140.59;51.66
76321;BME280;65132;52.088;5.402;2023-09-30T12:04:52;77254.44;;;-140.59;49.91
76321;BME280;65132;52.088;5.402;2023-09-30T12:07:22;77266.91;;;-140.59;53.03
76321;BME280;65132;52.088;5.402;2023-09-30T12:09:54;77208.75;;;-140.59;50.43
76321;BME280;65132;52.088;5.402;2023-09-30T12:12:29;77185.88;;;-140.59;50.03
76321;BME280;65132;52.088;5.402;2023-09-30T12:14:59;77287.69;;;-140.59;52.77
76321;BME280;65132;52.088;5.402;2023-09-30T12:17:26;77231.59;;;-140.59;50.20
76321;BME280;65132;52.088;5.402;2023-09-30T12:19:52;77179.66;;;-140.59;50.94
76321;BME280;65132;52.088;5.402;2023-09-30T12:22:18;77273.16;;;-140.59;50.52
76321;BME280;65132;52.088;5.402;2023-09-30T12:24:48;77389.50;;;-140.59;52.01
76321;BME280;65132;52.088;5.402;2023-09-30T12:27:19;77187.97;;;-140.59;50.78
76321;BME280;65132;52.088;5.402;2023-09-30T12:29:47;77244.06;;;-140.59;48.76
76321;BME280;65132;52.088;5.402;2023-09-30T12:32:14;77227.44;;;-140.59;47.78
76321;BME280;65132;52.088;5.402;2023-09-30T12:34:45;77314.69;;;-140.59;47.76
76321;BME280;65132;52.088;5.402;2023-09-30T12:37:18;77370.78;;;-140.59;48.79
76321;BME280;65132;52.088;5.402;2023-09-30T12:39:46;77366.63;;;-140.59;49.36
76321;BME280;65132;52.088;5.402;2023-09-30T12:42:15;77287.69;;;-140.59;49.42
76321;BME280;65132;52.088;5.402;2023-09-30T12:45:00;77175.50;;;-140.59;47.95
76321;BME280;65132;52.088;5.402;2023-09-30T12:47:28;77181.72;;;-140.59;46.17
76321;BME280;65132;52.088;5.402;2023-09-30T12:50:03;77165.09;;;-140.59;45.89
76321;BME280;65132;52.088;5.402;2023-09-30T12:52:29;77055.00;;;-140.59;44.59
76321;BME280;65132;52.088;5.402;2023-09-30T12:54:58;77075.78;;;-140.59;44.93
76321;BME280;65132;52.088;5.402;2023-09-30T12:57:31;77102.78;;;-140.59;43.76
76321;BME280;65132;52.088;5.402;2023-09-30T12:59:58;77125.63;;;-140.59;46.13